Chinandega, Nicaragua

4:30 PM CST on December 26, 2014 (GMT -0600)
Chinandega | Change Station
CLOSE
Current Station
Personal Weather Station
Location: Chinandega, CHINANDEGA
Elevation: 243 ft
Nearby Weather Stations

Elev 243 ft 12.62 °N, 87.12 °W | Updated 7 minutes ago

Partly Cloudy
Partly Cloudy
89.2 °F
Feels Like 93 °F
N
6.3
Wind Variable Wind from ESE

Today
High -- | Low -- °F
--% Chance of Precip.
Yesterday
High -- | Low -- °F
Precip. -- in
6:07 AM 5:30 PM
Waxing Crescent, 29% visible
Pressure 29.77 in
Visibility 6.2 miles
Clouds Few 2500 ft
Heat Index 93 °F
Dew Point 68 °F
Humidity 49%
Rainfall 0.00 in
Snow Depth Not available.
UV 1 out of 12
Pollen Not available.
Air Quality Not available.
Flu Activity Not available.
METAR MNCH 262200Z 04008KT 9999 FEW025 33/18 Q1008

More Conditions Fewer Conditions

Pressure 29.77 in
Visibility 6.2 miles
Clouds Few 2500 ft
Heat Index 93 °F
Dew Point 68 °F
Humidity 49%
Rainfall 0.00 in
Snow Depth Not available.
UV 1 out of 12
Pollen Not available.
Air Quality Not available.
Flu Activity Not available.
METAR MNCH 262200Z 04008KT 9999 FEW025 33/18 Q1008

More Conditions Fewer Conditions

10-Day Weather Forecast

Almanac

Astronomy

Dec. 26, 2014 Rise Set
Actual Time
Civil Twilight
Nautical Twilight
Astronomical Twilight
Moon
Length of Visible Light
Length of Day
Tomorrow will be .
, % of the Moon is Illuminated

Today's Extremes

Country Highs Country Lows

Community

WunderPhotos

Upload Photos

1,780,740 photos uploaded!

WunderBlogs® & News

Nearby

Air Quality

  Air Quality AQ Index Pollutant
Not available.

Snow Depth

Station Depth Elevation

Earthquake Activity

City Distance Mag. Time & Date
Minimum magnitude displayed is 2.5.

Coastal Water Temperatures

Place Temperature

Nearby Weather Stations